Schneifelwetter: Wetterstation Hallschlag, 537 m . NN
Wetterdaten: Montag, 16.03.2009
Datum Zeit Temp. A. Temp. 2 Feuchte A. Luftdruck Regen Wind Richtung Richtung Sonnenschein Helligkeit T Regen Taupunkt Windchill
16.03.2009 00:10 4,4 C 4,4 C 91 % 1028 hPa 0,0 l/m 9,8 km/h (2 Bft) W-NW45 300 0 min 0 lux 0,00 min 3,1 C 1,6 C
16.03.2009 00:25 4,3 C 4,3 C 92 % 1028 hPa 0,0 l/m 5,0 km/h (1 Bft) W 275 0 min 0 lux 0,00 min 3,1 C 4,3 C
16.03.2009 00:40 4,3 C 4,3 C 92 % 1028 hPa 0,0 l/m 8,5 km/h (2 Bft) N-NW45 330 0 min 0 lux 0,00 min 3,1 C 2,5 C
16.03.2009 00:55 4,3 C 4,2 C 93 % 1029 hPa 0,0 l/m 13,0 km/h (3 Bft) N-NW22.5 340 0 min 0 lux 0,00 min 3,3 C -0,7 C
16.03.2009 01:10 4,2 C 4,1 C 92 % 1029 hPa 0,0 l/m 8,9 km/h (2 Bft) N-NW22.5 335 0 min 0 lux 0,00 min 3,0 C 2,0 C
16.03.2009 01:25 4,2 C 4,1 C 92 % 1028 hPa 0,0 l/m 8,1 km/h (2 Bft) N-NW 340 0 min 0 lux 0,00 min 3,0 C 2,7 C
16.03.2009 01:40 4,2 C 4,2 C 92 % 1029 hPa 0,0 l/m 9,4 km/h (2 Bft) W-NW22.5 295 0 min 0 lux 0,00 min 3,0 C 1,6 C
16.03.2009 01:55 4,2 C 4,1 C 92 % 1028 hPa 0,0 l/m 6,3 km/h (2 Bft) NW45 315 0 min 0 lux 0,00 min 3,0 C 4,2 C
16.03.2009 02:10 4,2 C 4,1 C 93 % 1028 hPa 0,0 l/m 7,8 km/h (2 Bft) W-NW22.5 295 0 min 0 lux 0,00 min 3,2 C 2,9 C
16.03.2009 02:25 4,2 C 4,2 C 92 % 1028 hPa 0,0 l/m 10,1 km/h (2 Bft) W22.5 275 0 min 0 lux 0,00 min 3,0 C 1,1 C
16.03.2009 02:40 4,2 C 4,2 C 93 % 1028 hPa 0,0 l/m 8,3 km/h (2 Bft) NW45 320 0 min 0 lux 0,00 min 3,2 C 2,5 C
16.03.2009 02:55 4,1 C 4,1 C 92 % 1028 hPa 0,0 l/m 4,4 km/h (1 Bft) N-NW 335 0 min 0 lux 0,00 min 2,9 C 4,1 C
16.03.2009 03:10 4,1 C 4,1 C 92 % 1028 hPa 0,0 l/m 5,1 km/h (1 Bft) NW 320 0 min 0 lux 0,00 min 2,9 C 4,1 C
16.03.2009 03:25 4,1 C 4,1 C 92 % 1028 hPa 0,0 l/m 0,4 km/h (0 Bft) NW 320 0 min 0 lux 0,00 min 2,9 C 4,1 C
16.03.2009 03:40 4,1 C 4,1 C 92 % 1028 hPa 0,0 l/m 0,9 km/h (0 Bft) NW 320 0 min 0 lux 0,00 min 2,9 C 4,1 C
16.03.2009 03:55 4,1 C 4,1 C 93 % 1028 hPa 0,0 l/m 5,6 km/h (1 Bft) W-NW22.5 300 0 min 0 lux 0,00 min 3,1 C 4,1 C
16.03.2009 04:10 4,0 C 4,0 C 93 % 1028 hPa 0,0 l/m 0,6 km/h (0 Bft) W 270 0 min 0 lux 0,00 min 3,0 C 4,0 C
16.03.2009 04:25 4,0 C 4,0 C 93 % 1028 hPa 0,0 l/m 4,2 km/h (1 Bft) NW45 325 0 min 0 lux 0,00 min 3,0 C 4,0 C
16.03.2009 04:40 4,0 C 4,0 C 93 % 1028 hPa 0,0 l/m 7,0 km/h (2 Bft) NW 325 0 min 0 lux 0,00 min 3,0 C 3,5 C
16.03.2009 04:55 4,0 C 4,0 C 93 % 1028 hPa 0,0 l/m 11,3 km/h (2 Bft) N-NW22.5 345 0 min 0 lux 0,00 min 3,0 C 0,1 C
16.03.2009 05:10 4,0 C 4,0 C 93 % 1028 hPa 0,0 l/m 7,4 km/h (2 Bft) N-NW45 340 0 min 0 lux 0,00 min 3,0 C 3,1 C
16.03.2009 05:25 4,0 C 4,0 C 93 % 1028 hPa 0,0 l/m 9,8 km/h (2 Bft) N-NW22.5 330 0 min 0 lux 0,00 min 3,0 C 1,1 C
16.03.2009 05:40 4,0 C 4,0 C 93 % 1029 hPa 0,0 l/m 11,0 km/h (2 Bft) NW22.5 325 0 min 0 lux 0,00 min 3,0 C 0,3 C
16.03.2009 05:55 3,9 C 4,0 C 93 % 1029 hPa 0,0 l/m 5,0 km/h (1 Bft) NW 325 0 min 0 lux 0,00 min 2,9 C 3,9 C
16.03.2009 06:10 3,9 C 3,9 C 93 % 1029 hPa 0,0 l/m 0,9 km/h (0 Bft) NW 325 0 min 0 lux 0,00 min 2,9 C 3,9 C
16.03.2009 06:25 3,9 C 3,9 C 92 % 1028 hPa 0,0 l/m 8,0 km/h (2 Bft) N 350 0 min 0 lux 0,00 min 2,7 C 2,4 C
16.03.2009 06:40 3,9 C 3,9 C 92 % 1029 hPa 0,0 l/m 9,8 km/h (2 Bft) N22.5 350 0 min 183 lux 0,00 min 2,7 C 1,0 C
16.03.2009 06:55 3,8 C 3,9 C 92 % 1029 hPa 0,0 l/m 7,8 km/h (2 Bft) N 10 0 min 604 lux 0,00 min 2,6 C 2,5 C
16.03.2009 07:10 3,8 C 3,9 C 91 % 1029 hPa 0,0 l/m 11,5 km/h (2 Bft) N 360 0 min 1,09 klux 0,00 min 2,5 C -0,3 C
16.03.2009 07:25 3,8 C 3,9 C 91 % 1029 hPa 0,0 l/m 7,4 km/h (2 Bft) N 350 0 min 1,49 klux 0,00 min 2,5 C 2,9 C
16.03.2009 07:40 3,9 C 4,0 C 92 % 1029 hPa 0,0 l/m 8,8 km/h (2 Bft) N 360 0 min 1,64 klux 0,00 min 2,7 C 1,8 C
16.03.2009 08:01 3,9 C 4,1 C 92 % 1029 hPa 0,0 l/m 8,0 km/h (2 Bft) N-NW 335 0 min 2,12 klux 0,00 min 2,7 C 2,4 C
16.03.2009 08:16 3,9 C 4,2 C 92 % 1029 hPa 0,0 l/m 4,8 km/h (1 Bft) N 360 0 min 3,24 klux 0,00 min 2,7 C 3,9 C
16.03.2009 08:31 4,0 C 4,3 C 93 % 1029 hPa 0,0 l/m 5,0 km/h (1 Bft) N 360 0 min 3,90 klux 0,00 min 3,0 C 4,0 C
16.03.2009 08:46 4,2 C 4,5 C 93 % 1029 hPa 0,0 l/m 10,4 km/h (2 Bft) N22.5 5 0 min 4,65 klux 0,00 min 3,2 C 0,9 C
16.03.2009 09:01 4,3 C 4,7 C 93 % 1030 hPa 0,0 l/m 12,7 km/h (3 Bft) N 10 0 min 6,03 klux 0,00 min 3,3 C -0,5 C
16.03.2009 09:16 4,3 C 5,0 C 92 % 1030 hPa 0,0 l/m 12,3 km/h (3 Bft) N-NO22.5 30 0 min 7,57 klux 0,00 min 3,1 C -0,2 C
16.03.2009 09:31 4,4 C 5,1 C 92 % 1030 hPa 0,0 l/m 12,9 km/h (3 Bft) N-NO 25 0 min 7,30 klux 0,00 min 3,2 C -0,5 C
16.03.2009 09:46 4,5 C 5,3 C 92 % 1030 hPa 0,0 l/m 13,2 km/h (3 Bft) N-NO 25 0 min 8,88 klux 0,00 min 3,3 C -0,5 C
16.03.2009 10:01 4,5 C 5,4 C 92 % 1030 hPa 0,0 l/m 11,4 km/h (2 Bft) N-NO22.5 20 0 min 8,77 klux 0,00 min 3,3 C 0,6 C
16.03.2009 10:16 4,5 C 5,4 C 92 % 1030 hPa 0,0 l/m 13,0 km/h (3 Bft) N-NO 20 0 min 6,78 klux 0,00 min 3,3 C -0,4 C
16.03.2009 10:31 4,6 C 5,6 C 92 % 1030 hPa 0,0 l/m 9,0 km/h (2 Bft) N 355 0 min 11,0 klux 0,00 min 3,4 C 2,4 C
16.03.2009 10:46 4,9 C 6,0 C 91 % 1030 hPa 0,0 l/m 10,5 km/h (2 Bft) N-NO 25 0 min 14,0 klux 0,00 min 3,6 C 1,6 C
16.03.2009 11:01 5,2 C 6,3 C 91 % 1030 hPa 0,0 l/m 14,8 km/h (3 Bft) N-NO 25 0 min 15,6 klux 0,00 min 3,9 C -0,6 C
16.03.2009 11:16 5,5 C 6,7 C 90 % 1030 hPa 0,0 l/m 7,4 km/h (2 Bft) N-NO 25 0 min 15,9 klux 0,00 min 4,0 C 4,6 C
16.03.2009 11:31 6,0 C 7,3 C 88 % 1030 hPa 0,0 l/m 11,5 km/h (2 Bft) N-NO 30 0 min 23,3 klux 0,00 min 4,2 C 2,2 C
16.03.2009 11:46 6,5 C 8,0 C 87 % 1030 hPa 0,0 l/m 5,2 km/h (1 Bft) N-NO 30 0 min 23,7 klux 0,00 min 4,5 C 6,5 C
16.03.2009 12:01 6,7 C 8,5 C 85 % 1030 hPa 0,0 l/m 8,8 km/h (2 Bft) N-NO 30 0 min 23,9 klux 0,00 min 4,4 C 4,8 C
16.03.2009 12:16 6,9 C 8,8 C 85 % 1030 hPa 0,0 l/m 8,8 km/h (2 Bft) N-NO 30 0 min 23,3 klux 0,00 min 4,6 C 5,0 C
16.03.2009 12:31 7,2 C 9,4 C 84 % 1030 hPa 0,0 l/m 7,1 km/h (2 Bft) N-NO 30 0 min 27,7 klux 0,00 min 4,7 C 6,6 C
16.03.2009 12:46 7,5 C 10,0 C 83 % 1030 hPa 0,0 l/m 4,0 km/h (1 Bft) N-NO 30 15 min 33,4 klux 0,00 min 4,8 C 7,5 C
16.03.2009 13:01 8,0 C 10,7 C 82 % 1030 hPa 0,0 l/m 6,1 km/h (2 Bft) N-NO 30 15 min 31,5 klux 0,00 min 5,1 C 8,0 C
16.03.2009 13:16 8,5 C 10,8 C 80 % 1030 hPa 0,0 l/m 3,9 km/h (1 Bft) N-NO 30 15 min 31,3 klux 0,00 min 5,3 C 8,5 C
16.03.2009 13:31 8,7 C 12,9 C 79 % 1030 hPa 0,0 l/m 8,4 km/h (2 Bft) N-NO 25 15 min 87,8 klux 0,00 min 5,3 C 7,2 C
16.03.2009 13:46 8,6 C 13,0 C 78 % 1030 hPa 0,0 l/m 6,6 km/h (2 Bft) NW 320 15 min 66,0 klux 0,00 min 5,0 C 8,5 C
16.03.2009 14:01 8,6 C 14,9 C 76 % 1030 hPa 0,0 l/m 7,4 km/h (2 Bft) N-NW 340 15 min 78,7 klux 0,00 min 4,6 C 7,8 C
16.03.2009 14:16 9,0 C 17,4 C 77 % 1030 hPa 0,0 l/m 7,5 km/h (2 Bft) N-NO 25 15 min 78,6 klux 0,00 min 5,2 C 8,2 C
16.03.2009 14:31 8,4 C 15,6 C 76 % 1030 hPa 0,0 l/m 8,7 km/h (2 Bft) N-NO22.5 30 15 min 35,7 klux 0,00 min 4,4 C 6,7 C
16.03.2009 14:46 8,8 C 17,6 C 77 % 1029 hPa 0,0 l/m 7,0 km/h (2 Bft) N-NO 30 15 min 68,9 klux 0,00 min 5,0 C 8,3 C
16.03.2009 15:01 8,9 C 18,7 C 76 % 1029 hPa 0,0 l/m 9,8 km/h (2 Bft) NO45 55 15 min 61,9 klux 0,00 min 4,9 C 6,5 C
16.03.2009 15:16 9,2 C 18,0 C 75 % 1029 hPa 0,0 l/m 9,6 km/h (2 Bft) O-SO22.5 115 15 min 62,4 klux 0,00 min 5,0 C 7,0 C
16.03.2009 15:31 9,2 C 17,9 C 75 % 1029 hPa 0,0 l/m 12,8 km/h (3 Bft) NO22.5 50 15 min 57,2 klux 0,00 min 5,0 C 5,2 C
16.03.2009 15:46 9,3 C 17,7 C 75 % 1029 hPa 0,0 l/m 16,2 km/h (3 Bft) O-NO45 60 15 min 55,0 klux 0,00 min 5,1 C 3,8 C
16.03.2009 16:01 9,2 C 16,5 C 74 % 1029 hPa 0,0 l/m 15,9 km/h (3 Bft) NO22.5 45 15 min 49,4 klux 0,00 min 4,8 C 3,8 C
16.03.2009 16:16 9,1 C 16,5 C 75 % 1029 hPa 0,0 l/m 15,4 km/h (3 Bft) NO22.5 35 15 min 44,3 klux 0,00 min 4,9 C 3,9 C
16.03.2009 16:31 9,0 C 16,3 C 75 % 1029 hPa 0,0 l/m 18,4 km/h (3 Bft) N-NO22.5 15 15 min 38,8 klux 0,00 min 4,8 C 2,6 C
16.03.2009 16:46 8,8 C 15,4 C 75 % 1029 hPa 0,0 l/m 15,5 km/h (3 Bft) N-NO22.5 30 15 min 34,5 klux 0,00 min 4,6 C 3,5 C
16.03.2009 17:01 8,4 C 14,8 C 76 % 1029 hPa 0,0 l/m 15,7 km/h (3 Bft) N-NO67.5 25 15 min 30,7 klux 0,00 min 4,4 C 2,9 C
16.03.2009 17:16 8,2 C 14,2 C 76 % 1029 hPa 0,0 l/m 15,3 km/h (3 Bft) N-NO22.5 20 15 min 29,6 klux 0,00 min 4,2 C 2,8 C
16.03.2009 17:31 7,8 C 12,8 C 77 % 1029 hPa 0,0 l/m 12,2 km/h (2 Bft) N22.5 5 0 min 23,4 klux 0,00 min 4,0 C 3,9 C
16.03.2009 17:46 7,6 C 10,9 C 78 % 1029 hPa 0,0 l/m 12,2 km/h (2 Bft) N45 360 0 min 16,1 klux 0,00 min 4,0 C 3,6 C
16.03.2009 18:01 7,2 C 9,3 C 79 % 1029 hPa 0,0 l/m 11,2 km/h (2 Bft) NO22.5 35 0 min 15,0 klux 0,00 min 3,8 C 3,8 C
16.03.2009 18:16 6,6 C 7,5 C 80 % 1029 hPa 0,0 l/m 11,8 km/h (2 Bft) O-NO45 60 0 min 9,2 klux 0,00 min 3,4 C 2,7 C
16.03.2009 18:31 6,0 C 6,1 C 82 % 1029 hPa 0,0 l/m 8,8 km/h (2 Bft) NO 55 0 min 3,82 klux 0,00 min 3,2 C 4,0 C
16.03.2009 18:46 5,3 C 5,0 C 83 % 1029 hPa 0,0 l/m 9,3 km/h (2 Bft) NO 55 0 min 1,14 klux 0,00 min 2,7 C 2,9 C
16.03.2009 19:01 4,6 C 3,8 C 84 % 1029 hPa 0,0 l/m 8,3 km/h (2 Bft) NO 40 0 min 274 lux 0,00 min 2,1 C 2,9 C
16.03.2009 19:16 4,1 C 2,8 C 85 % 1030 hPa 0,0 l/m 7,0 km/h (2 Bft) NO22.5 40 0 min 32 lux 0,00 min 1,8 C 3,6 C
16.03.2009 19:31 3,7 C 2,1 C 86 % 1030 hPa 0,0 l/m 5,2 km/h (1 Bft) N-NO 30 0 min 1 lux 0,00 min 1,6 C 3,7 C
16.03.2009 19:46 3,4 C 1,5 C 87 % 1030 hPa 0,0 l/m 5,0 km/h (1 Bft) N-NO 30 0 min 0 lux 0,00 min 1,4 C 3,4 C
16.03.2009 20:01 2,8 C 0,8 C 87 % 1029 hPa 0,0 l/m 0,0 km/h (0 Bft) N-NO 30 0 min 0 lux 0,00 min 0,9 C 2,8 C
16.03.2009 20:16 2,4 C 0,4 C 88 % 1029 hPa 0,0 l/m 0,1 km/h (0 Bft) N-NO 30 0 min 0 lux 0,00 min 0,6 C 2,4 C
16.03.2009 20:31 2,0 C -0,1 C 89 % 1030 hPa 0,0 l/m 0,1 km/h (0 Bft) N-NO 30 0 min 0 lux 0,00 min 0,4 C 2,0 C
16.03.2009 20:46 1,6 C -0,5 C 88 % 1030 hPa 0,0 l/m 0,0 km/h (0 Bft) N-NO 30 0 min 0 lux 0,00 min -0,2 C 1,6 C
16.03.2009 21:01 1,0 C -0,9 C 89 % 1029 hPa 0,0 l/m 0,0 km/h (0 Bft) N-NO 30 0 min 0 lux 0,00 min -0,6 C 1,0 C
16.03.2009 21:16 0,4 C -1,2 C 90 % 1030 hPa 0,0 l/m 0,0 km/h (0 Bft) N-NO 30 0 min 0 lux 0,00 min -1,0 C 0,4 C
16.03.2009 21:31 0,2 C -1,6 C 91 % 1030 hPa 0,0 l/m 0,0 km/h (0 Bft) N-NO 30 0 min 0 lux 0,00 min -1,1 C 0,2 C
16.03.2009 21:46 -0,2 C -2,1 C 91 % 1029 hPa 0,0 l/m 0,1 km/h (0 Bft) N-NO 30 0 min 0 lux 0,00 min -1,5 C -0,2 C
16.03.2009 22:01 -0,7 C -2,4 C 91 % 1029 hPa 0,0 l/m 0,0 km/h (0 Bft) N-NO 30 0 min 0 lux 0,00 min -2,0 C -0,7 C
16.03.2009 22:16 -1,0 C -2,5 C 92 % 1029 hPa 0,0 l/m 0,0 km/h (0 Bft) N-NO 30 0 min 0 lux 0,00 min -2,1 C -1,0 C
16.03.2009 22:31 -0,7 C -2,5 C 94 % 1029 hPa 0,0 l/m 0,0 km/h (0 Bft) N-NO 30 0 min 0 lux 0,00 min -1,5 C -0,7 C
16.03.2009 22:46 -1,0 C -2,7 C 93 % 1029 hPa 0,0 l/m 0,4 km/h (0 Bft) N-NO 30 0 min 0 lux 0,00 min -2,0 C -1,0 C
16.03.2009 23:01 -1,4 C -2,8 C 93 % 1030 hPa 0,0 l/m 0,0 km/h (0 Bft) N-NO 25 0 min 0 lux 0,00 min -2,4 C -1,4 C
16.03.2009 23:16 -1,6 C -2,9 C 94 % 1029 hPa 0,0 l/m 0,0 km/h (0 Bft) N-NO 25 0 min 0 lux 0,00 min -2,4 C -1,6 C
16.03.2009 23:31 -1,9 C -3,1 C 94 % 1029 hPa 0,0 l/m 0,0 km/h (0 Bft) N-NO 25 0 min 0 lux 0,00 min -2,7 C -1,9 C
16.03.2009 23:46 -2,0 C -3,3 C 94 % 1029 hPa 0,0 l/m 0,0 km/h (0 Bft) N-NO 25 0 min 0 lux 0,00 min -2,8 C -2,0 C
16.03.2009 23:55 -2,0 C -3,6 C 94 % 1029 hPa 0,0 l/m 0,0 km/h (0 Bft) N-NO 25 0 min 0 lux 0,00 min -2,8 C -2,0 C
_ Min-Zeit 23:46 23:55 16:01 00:10 - 20:01 - - - - - 23:46 23:46
Minimum _ -2,0 C -3,6 C 74 % 1028 hPa - 0,0 km/h (0 Bft) - - - - - -2,8 C -2,0 C
_ Max-Zeit 15:46 15:01 22:31 09:01 00:10 16:31 - - 12:46 13:31 00:10 13:31 13:16
Maximum _ 9,3 C 18,7 C 94 % 1030 hPa 0,0 l/m 18,4 km/h
N-NO (3 Bft)
- - 15 min 87,8 klux 0,00 min 5,3 C 8,5 C
Durchschnitt _ 4,6 C 5,8 C 88 % 1029 hPa #0,0 l/m 7,3 km/h (2 Bft) N-NO - #4:45 h 13,4 klux #0 min. 2,7 C 2,8 C